sensor_id;sensor_type;location;lat;lon;timestamp;pressure;altitude;pressure_sealevel;temperature;humidity
79671;BME280;69137;50.878;8.050;2024-03-25T00:00:15;97170.91;;;3.74;95.43
79671;BME280;69137;50.878;8.050;2024-03-25T00:02:41;97166.81;;;3.71;95.29
79671;BME280;69137;50.878;8.050;2024-03-25T00:05:08;97164.41;;;3.75;95.04
79671;BME280;69137;50.878;8.050;2024-03-25T00:07:35;97166.59;;;3.78;95.66
79671;BME280;69137;50.878;8.050;2024-03-25T00:10:01;97163.84;;;3.72;95.29
79671;BME280;69137;50.878;8.050;2024-03-25T00:12:27;97160.84;;;3.69;95.63
79671;BME280;69137;50.878;8.050;2024-03-25T00:14:52;97176.53;;;3.72;96.13
79671;BME280;69137;50.878;8.050;2024-03-25T00:17:17;97177.63;;;3.71;95.84
79671;BME280;69137;50.878;8.050;2024-03-25T00:19:44;97174.59;;;3.67;97.16
79671;BME280;69137;50.878;8.050;2024-03-25T00:22:15;97179.09;;;3.62;97.29
79671;BME280;69137;50.878;8.050;2024-03-25T00:24:40;97182.25;;;3.54;98.01
79671;BME280;69137;50.878;8.050;2024-03-25T00:27:06;97180.53;;;3.47;98.63
79671;BME280;69137;50.878;8.050;2024-03-25T00:29:31;97183.72;;;3.44;99.49
79671;BME280;69137;50.878;8.050;2024-03-25T00:31:56;97189.78;;;3.52;99.00
79671;BME280;69137;50.878;8.050;2024-03-25T00:34:22;97192.41;;;3.46;99.82
79671;BME280;69137;50.878;8.050;2024-03-25T00:36:47;97186.25;;;3.51;100.00
79671;BME280;69137;50.878;8.050;2024-03-25T00:39:13;97188.91;;;3.46;99.19
79671;BME280;69137;50.878;8.050;2024-03-25T00:41:38;97187.31;;;3.50;99.80
79671;BME280;69137;50.878;8.050;2024-03-25T00:44:03;97192.66;;;3.45;100.00
79671;BME280;69137;50.878;8.050;2024-03-25T00:46:29;97185.63;;;3.44;100.00
79671;BME280;69137;50.878;8.050;2024-03-25T00:48:54;97178.25;;;3.39;100.00
79671;BME280;69137;50.878;8.050;2024-03-25T00:51:19;97178.78;;;3.36;100.00
79671;BME280;69137;50.878;8.050;2024-03-25T00:53:45;97179.34;;;3.38;100.00
79671;BME280;69137;50.878;8.050;2024-03-25T00:56:10;97174.69;;;3.34;100.00
79671;BME280;69137;50.878;8.050;2024-03-25T00:58:35;97182.78;;;3.34;100.00
79671;BME280;69137;50.878;8.050;2024-03-25T01:01:01;97181.41;;;3.31;100.00
79671;BME280;69137;50.878;8.050;2024-03-25T01:03:26;97185.31;;;3.40;99.96
79671;BME280;69137;50.878;8.050;2024-03-25T01:05:51;97184.16;;;3.36;98.93
79671;BME280;69137;50.878;8.050;2024-03-25T01:08:17;97171.41;;;3.32;99.81
79671;BME280;69137;50.878;8.050;2024-03-25T01:10:42;97161.50;;;3.37;98.16
79671;BME280;69137;50.878;8.050;2024-03-25T01:13:07;97168.91;;;3.25;98.93
79671;BME280;69137;50.878;8.050;2024-03-25T01:15:33;97168.56;;;3.21;98.72
79671;BME280;69137;50.878;8.050;2024-03-25T01:17:58;97168.09;;;3.24;99.07
79671;BME280;69137;50.878;8.050;2024-03-25T01:20:23;97165.56;;;3.18;99.40
79671;BME280;69137;50.878;8.050;2024-03-25T01:22:48;97164.25;;;3.20;99.34
79671;BME280;69137;50.878;8.050;2024-03-25T01:25:14;97168.34;;;3.23;98.91
79671;BME280;69137;50.878;8.050;2024-03-25T01:27:39;97178.47;;;3.16;99.73
79671;BME280;69137;50.878;8.050;2024-03-25T01:30:05;97166.88;;;3.15;99.48
79671;BME280;69137;50.878;8.050;2024-03-25T01:32:31;97177.50;;;3.22;99.46
79671;BME280;69137;50.878;8.050;2024-03-25T01:34:57;97174.47;;;3.18;99.44
79671;BME280;69137;50.878;8.050;2024-03-25T01:37:22;97182.06;;;3.21;99.72
79671;BME280;69137;50.878;8.050;2024-03-25T01:39:47;97173.22;;;3.26;99.16
79671;BME280;69137;50.878;8.050;2024-03-25T01:42:13;97177.16;;;3.18;98.35
79671;BME280;69137;50.878;8.050;2024-03-25T01:44:38;97173.66;;;3.18;99.20
79671;BME280;69137;50.878;8.050;2024-03-25T01:47:04;97186.66;;;3.21;99.32
79671;BME280;69137;50.878;8.050;2024-03-25T01:49:29;97189.19;;;3.11;98.59
79671;BME280;69137;50.878;8.050;2024-03-25T01:51:55;97182.75;;;3.12;98.57
79671;BME280;69137;50.878;8.050;2024-03-25T01:54:21;97176.72;;;3.04;98.75
79671;BME280;69137;50.878;8.050;2024-03-25T01:56:47;97184.38;;;3.13;98.21
79671;BME280;69137;50.878;8.050;2024-03-25T01:59:13;97175.13;;;3.09;99.31
79671;BME280;69137;50.878;8.050;2024-03-25T02:01:41;97180.59;;;3.14;98.82
79671;BME280;69137;50.878;8.050;2024-03-25T02:04:06;97181.91;;;3.11;98.81
79671;BME280;69137;50.878;8.050;2024-03-25T02:06:32;97183.31;;;3.14;98.79
79671;BME280;69137;50.878;8.050;2024-03-25T02:08:58;97185.19;;;3.13;99.55
79671;BME280;69137;50.878;8.050;2024-03-25T02:11:24;97192.16;;;3.09;100.00
79671;BME280;69137;50.878;8.050;2024-03-25T02:13:50;97188.47;;;3.15;100.00
79671;BME280;69137;50.878;8.050;2024-03-25T02:16:16;97190.94;;;3.17;100.00
79671;BME280;69137;50.878;8.050;2024-03-25T02:18:41;97184.69;;;3.16;100.00
79671;BME280;69137;50.878;8.050;2024-03-25T02:21:06;97188.69;;;3.14;100.00
79671;BME280;69137;50.878;8.050;2024-03-25T02:23:32;97183.50;;;3.07;100.00
79671;BME280;69137;50.878;8.050;2024-03-25T02:25:59;97185.38;;;3.06;100.00
79671;BME280;69137;50.878;8.050;2024-03-25T02:28:24;97185.69;;;3.10;100.00
79671;BME280;69137;50.878;8.050;2024-03-25T02:30:50;97200.66;;;3.01;100.00
79671;BME280;69137;50.878;8.050;2024-03-25T02:33:15;97203.13;;;2.86;100.00
79671;BME280;69137;50.878;8.050;2024-03-25T02:35:41;97200.00;;;2.77;100.00
79671;BME280;69137;50.878;8.050;2024-03-25T02:38:08;97204.19;;;2.68;99.30
79671;BME280;69137;50.878;8.050;2024-03-25T02:40:34;97198.78;;;2.68;100.00
79671;BME280;69137;50.878;8.050;2024-03-25T02:43:00;97205.16;;;2.61;100.00
79671;BME280;69137;50.878;8.050;2024-03-25T02:45:25;97211.38;;;2.62;100.00
79671;BME280;69137;50.878;8.050;2024-03-25T02:47:50;97203.59;;;2.66;100.00
79671;BME280;69137;50.878;8.050;2024-03-25T02:50:16;97210.41;;;2.68;100.00
79671;BME280;69137;50.878;8.050;2024-03-25T02:52:41;97199.84;;;2.67;100.00
79671;BME280;69137;50.878;8.050;2024-03-25T02:55:06;97206.41;;;2.71;100.00
79671;BME280;69137;50.878;8.050;2024-03-25T02:57:32;97203.34;;;2.67;100.00
79671;BME280;69137;50.878;8.050;2024-03-25T02:59:57;97210.47;;;2.73;100.00
79671;BME280;69137;50.878;8.050;2024-03-25T03:02:22;97212.91;;;2.75;100.00
79671;BME280;69137;50.878;8.050;2024-03-25T03:04:47;97221.84;;;2.75;100.00
79671;BME280;69137;50.878;8.050;2024-03-25T03:07:13;97220.78;;;2.76;100.00
79671;BME280;69137;50.878;8.050;2024-03-25T03:09:38;97220.53;;;2.78;100.00
79671;BME280;69137;50.878;8.050;2024-03-25T03:12:04;97217.84;;;2.78;100.00
79671;BME280;69137;50.878;8.050;2024-03-25T03:14:29;97213.50;;;2.77;100.00
79671;BME280;69137;50.878;8.050;2024-03-25T03:16:54;97217.28;;;2.76;100.00
79671;BME280;69137;50.878;8.050;2024-03-25T03:19:22;97215.38;;;2.76;100.00
79671;BME280;69137;50.878;8.050;2024-03-25T03:21:48;97218.88;;;2.77;100.00
79671;BME280;69137;50.878;8.050;2024-03-25T03:24:13;97210.06;;;2.81;100.00
79671;BME280;69137;50.878;8.050;2024-03-25T03:26:38;97223.88;;;2.85;100.00
79671;BME280;69137;50.878;8.050;2024-03-25T03:29:04;97225.94;;;2.78;100.00
79671;BME280;69137;50.878;8.050;2024-03-25T03:31:29;97227.16;;;2.87;100.00
79671;BME280;69137;50.878;8.050;2024-03-25T03:33:55;97228.22;;;2.86;100.00
79671;BME280;69137;50.878;8.050;2024-03-25T03:36:22;97220.06;;;2.81;100.00
79671;BME280;69137;50.878;8.050;2024-03-25T03:38:47;97215.63;;;2.92;100.00
79671;BME280;69137;50.878;8.050;2024-03-25T03:41:14;97225.34;;;2.93;100.00
79671;BME280;69137;50.878;8.050;2024-03-25T03:43:40;97222.09;;;2.91;100.00
79671;BME280;69137;50.878;8.050;2024-03-25T03:46:05;97225.34;;;2.93;100.00
79671;BME280;69137;50.878;8.050;2024-03-25T03:48:31;97235.72;;;3.01;100.00
79671;BME280;69137;50.878;8.050;2024-03-25T03:50:56;97220.22;;;2.91;100.00
79671;BME280;69137;50.878;8.050;2024-03-25T03:53:22;97225.44;;;2.98;100.00
79671;BME280;69137;50.878;8.050;2024-03-25T03:55:57;97225.13;;;2.94;100.00
79671;BME280;69137;50.878;8.050;2024-03-25T03:58:24;97228.97;;;2.98;100.00
79671;BME280;69137;50.878;8.050;2024-03-25T04:00:50;97223.06;;;3.01;100.00
79671;BME280;69137;50.878;8.050;2024-03-25T04:03:16;97219.88;;;3.04;100.00
79671;BME280;69137;50.878;8.050;2024-03-25T04:05:41;97227.16;;;3.04;100.00
79671;BME280;69137;50.878;8.050;2024-03-25T04:08:07;97223.63;;;3.03;100.00
79671;BME280;69137;50.878;8.050;2024-03-25T04:10:33;97221.69;;;2.99;100.00
79671;BME280;69137;50.878;8.050;2024-03-25T04:12:59;97215.88;;;3.07;100.00
79671;BME280;69137;50.878;8.050;2024-03-25T04:15:24;97210.72;;;3.05;100.00
79671;BME280;69137;50.878;8.050;2024-03-25T04:17:49;97217.50;;;3.08;100.00
79671;BME280;69137;50.878;8.050;2024-03-25T04:20:15;97225.00;;;3.06;100.00
79671;BME280;69137;50.878;8.050;2024-03-25T04:22:45;97224.69;;;3.02;100.00
79671;BME280;69137;50.878;8.050;2024-03-25T04:25:10;97223.00;;;2.96;100.00
79671;BME280;69137;50.878;8.050;2024-03-25T04:27:40;97229.03;;;3.03;100.00
79671;BME280;69137;50.878;8.050;2024-03-25T04:30:07;97229.59;;;3.05;100.00
79671;BME280;69137;50.878;8.050;2024-03-25T04:32:34;97235.25;;;3.04;100.00
79671;BME280;69137;50.878;8.050;2024-03-25T04:34:59;97234.19;;;3.05;100.00
79671;BME280;69137;50.878;8.050;2024-03-25T04:37:24;97229.88;;;3.04;100.00
79671;BME280;69137;50.878;8.050;2024-03-25T04:39:50;97231.81;;;3.09;100.00
79671;BME280;69137;50.878;8.050;2024-03-25T04:42:15;97242.13;;;3.12;100.00
79671;BME280;69137;50.878;8.050;2024-03-25T04:44:40;97242.06;;;3.06;100.00
79671;BME280;69137;50.878;8.050;2024-03-25T04:47:06;97241.72;;;3.03;100.00
79671;BME280;69137;50.878;8.050;2024-03-25T04:49:31;97229.03;;;3.03;100.00
79671;BME280;69137;50.878;8.050;2024-03-25T04:51:56;97245.28;;;3.09;100.00
79671;BME280;69137;50.878;8.050;2024-03-25T04:54:21;97246.06;;;3.04;100.00
79671;BME280;69137;50.878;8.050;2024-03-25T04:56:47;97242.50;;;3.03;99.94
79671;BME280;69137;50.878;8.050;2024-03-25T04:59:12;97246.88;;;3.04;100.00
79671;BME280;69137;50.878;8.050;2024-03-25T05:01:38;97246.78;;;2.99;100.00
79671;BME280;69137;50.878;8.050;2024-03-25T05:04:03;97242.19;;;3.00;100.00
79671;BME280;69137;50.878;8.050;2024-03-25T05:06:28;97239.19;;;2.96;100.00
79671;BME280;69137;50.878;8.050;2024-03-25T05:08:53;97233.03;;;3.01;100.00
79671;BME280;69137;50.878;8.050;2024-03-25T05:11:19;97235.41;;;2.97;100.00
79671;BME280;69137;50.878;8.050;2024-03-25T05:13:44;97244.91;;;3.00;100.00
79671;BME280;69137;50.878;8.050;2024-03-25T05:16:10;97243.59;;;3.02;100.00
79671;BME280;69137;50.878;8.050;2024-03-25T05:18:36;97241.13;;;3.01;100.00
79671;BME280;69137;50.878;8.050;2024-03-25T05:21:01;97250.63;;;3.03;100.00
79671;BME280;69137;50.878;8.050;2024-03-25T05:23:26;97257.31;;;3.01;100.00
79671;BME280;69137;50.878;8.050;2024-03-25T05:25:52;97261.66;;;3.02;100.00
79671;BME280;69137;50.878;8.050;2024-03-25T05:28:17;97259.47;;;2.99;100.00
79671;BME280;69137;50.878;8.050;2024-03-25T05:30:42;97256.28;;;3.02;100.00
79671;BME280;69137;50.878;8.050;2024-03-25T05:33:07;97263.56;;;3.01;100.00
79671;BME280;69137;50.878;8.050;2024-03-25T05:35:33;97266.25;;;3.01;100.00
79671;BME280;69137;50.878;8.050;2024-03-25T05:38:01;97266.50;;;3.00;100.00
79671;BME280;69137;50.878;8.050;2024-03-25T05:40:28;97259.28;;;3.05;100.00
79671;BME280;69137;50.878;8.050;2024-03-25T05:42:54;97263.69;;;2.95;100.00
79671;BME280;69137;50.878;8.050;2024-03-25T05:45:19;97254.22;;;2.92;100.00
79671;BME280;69137;50.878;8.050;2024-03-25T05:47:44;97255.88;;;2.93;100.00
79671;BME280;69137;50.878;8.050;2024-03-25T05:50:10;97264.78;;;2.94;100.00
79671;BME280;69137;50.878;8.050;2024-03-25T05:52:35;97270.41;;;2.92;100.00
79671;BME280;69137;50.878;8.050;2024-03-25T05:55:01;97275.88;;;2.97;100.00
79671;BME280;69137;50.878;8.050;2024-03-25T05:57:26;97268.06;;;2.96;100.00
79671;BME280;69137;50.878;8.050;2024-03-25T05:59:52;97270.34;;;3.04;100.00
79671;BME280;69137;50.878;8.050;2024-03-25T06:02:17;97265.25;;;3.08;100.00
79671;BME280;69137;50.878;8.050;2024-03-25T06:04:42;97270.16;;;3.11;100.00
79671;BME280;69137;50.878;8.050;2024-03-25T06:07:07;97271.16;;;3.04;100.00
79671;BME280;69137;50.878;8.050;2024-03-25T06:09:33;97277.44;;;3.10;100.00
79671;BME280;69137;50.878;8.050;2024-03-25T06:11:58;97275.91;;;3.14;100.00
79671;BME280;69137;50.878;8.050;2024-03-25T06:14:24;97279.16;;;3.16;100.00
79671;BME280;69137;50.878;8.050;2024-03-25T06:16:49;97278.03;;;3.12;100.00
79671;BME280;69137;50.878;8.050;2024-03-25T06:19:14;97272.13;;;3.15;100.00
79671;BME280;69137;50.878;8.050;2024-03-25T06:21:40;97278.00;;;3.29;100.00
79671;BME280;69137;50.878;8.050;2024-03-25T06:24:07;97268.28;;;3.28;100.00
79671;BME280;69137;50.878;8.050;2024-03-25T06:26:33;97275.38;;;3.34;100.00
79671;BME280;69137;50.878;8.050;2024-03-25T06:28:59;97277.44;;;3.44;100.00
79671;BME280;69137;50.878;8.050;2024-03-25T06:31:24;97272.41;;;3.53;100.00
79671;BME280;69137;50.878;8.050;2024-03-25T06:34:08;97280.00;;;3.72;97.63
79671;BME280;69137;50.878;8.050;2024-03-25T06:36:42;97271.97;;;3.78;96.99
79671;BME280;69137;50.878;8.050;2024-03-25T06:39:08;97280.22;;;3.88;96.21
79671;BME280;69137;50.878;8.050;2024-03-25T06:41:34;97273.63;;;4.01;95.76
79671;BME280;69137;50.878;8.050;2024-03-25T06:43:59;97275.38;;;4.12;96.42
79671;BME280;69137;50.878;8.050;2024-03-25T06:46:24;97266.06;;;4.25;94.27
79671;BME280;69137;50.878;8.050;2024-03-25T06:48:50;97277.22;;;4.28;94.63
79671;BME280;69137;50.878;8.050;2024-03-25T06:51:17;97276.13;;;4.29;93.55
79671;BME280;69137;50.878;8.050;2024-03-25T06:53:43;97278.13;;;4.17;94.06
79671;BME280;69137;50.878;8.050;2024-03-25T06:56:08;97278.34;;;4.10;94.53
79671;BME280;69137;50.878;8.050;2024-03-25T06:58:34;97280.66;;;4.24;94.54
79671;BME280;69137;50.878;8.050;2024-03-25T07:01:07;97275.50;;;4.22;93.79
79671;BME280;69137;50.878;8.050;2024-03-25T07:03:33;97275.56;;;4.27;92.75
79671;BME280;69137;50.878;8.050;2024-03-25T07:05:59;97274.69;;;4.22;92.57
79671;BME280;69137;50.878;8.050;2024-03-25T07:08:28;97280.78;;;4.34;94.35
79671;BME280;69137;50.878;8.050;2024-03-25T07:10:54;97279.00;;;4.45;94.45
79671;BME280;69137;50.878;8.050;2024-03-25T07:13:19;97278.78;;;4.46;90.84
79671;BME280;69137;50.878;8.050;2024-03-25T07:15:45;97281.97;;;4.43;92.02
79671;BME280;69137;50.878;8.050;2024-03-25T07:18:10;97279.00;;;4.45;91.36
79671;BME280;69137;50.878;8.050;2024-03-25T07:20:38;97281.56;;;4.56;92.43
79671;BME280;69137;50.878;8.050;2024-03-25T07:23:04;97284.25;;;4.56;90.90
79671;BME280;69137;50.878;8.050;2024-03-25T07:25:29;97280.91;;;4.71;91.04
79671;BME280;69137;50.878;8.050;2024-03-25T07:27:55;97289.69;;;4.84;87.69
79671;BME280;69137;50.878;8.050;2024-03-25T07:30:20;97284.53;;;4.82;90.91
79671;BME280;69137;50.878;8.050;2024-03-25T07:32:47;97278.25;;;4.76;88.67
79671;BME280;69137;50.878;8.050;2024-03-25T07:35:13;97276.06;;;4.73;89.63
79671;BME280;69137;50.878;8.050;2024-03-25T07:37:41;97282.94;;;4.86;89.25
79671;BME280;69137;50.878;8.050;2024-03-25T07:40:07;97282.81;;;4.71;88.70
79671;BME280;69137;50.878;8.050;2024-03-25T07:42:34;97278.88;;;4.84;90.99
79671;BME280;69137;50.878;8.050;2024-03-25T07:44:59;97280.53;;;4.90;89.81
79671;BME280;69137;50.878;8.050;2024-03-25T07:47:25;97287.03;;;4.89;87.84
79671;BME280;69137;50.878;8.050;2024-03-25T07:49:51;97284.84;;;4.86;86.24
79671;BME280;69137;50.878;8.050;2024-03-25T07:52:16;97281.06;;;4.87;87.50
79671;BME280;69137;50.878;8.050;2024-03-25T07:54:44;97286.63;;;5.02;86.12
79671;BME280;69137;50.878;8.050;2024-03-25T07:57:15;97284.47;;;5.04;85.31
79671;BME280;69137;50.878;8.050;2024-03-25T07:59:40;97278.69;;;4.95;86.60
79671;BME280;69137;50.878;8.050;2024-03-25T08:02:06;97291.72;;;4.98;87.61
79671;BME280;69137;50.878;8.050;2024-03-25T08:04:31;97287.31;;;4.92;88.31
79671;BME280;69137;50.878;8.050;2024-03-25T08:07:02;97284.94;;;4.96;88.00
79671;BME280;69137;50.878;8.050;2024-03-25T08:09:28;97291.50;;;5.05;84.34
79671;BME280;69137;50.878;8.050;2024-03-25T08:12:03;97300.66;;;4.99;83.11
79671;BME280;69137;50.878;8.050;2024-03-25T08:14:28;97301.75;;;4.71;81.79
79671;BME280;69137;50.878;8.050;2024-03-25T08:16:54;97297.06;;;4.88;83.05
79671;BME280;69137;50.878;8.050;2024-03-25T08:19:19;97310.06;;;4.91;82.50
79671;BME280;69137;50.878;8.050;2024-03-25T08:21:45;97305.19;;;5.20;85.70
79671;BME280;69137;50.878;8.050;2024-03-25T08:24:18;97308.63;;;5.43;85.79
79671;BME280;69137;50.878;8.050;2024-03-25T08:26:44;97303.34;;;5.63;83.84
79671;BME280;69137;50.878;8.050;2024-03-25T08:29:09;97309.31;;;5.60;78.46
79671;BME280;69137;50.878;8.050;2024-03-25T08:31:34;97302.97;;;5.50;78.15
79671;BME280;69137;50.878;8.050;2024-03-25T08:34:00;97299.03;;;5.30;78.95
79671;BME280;69137;50.878;8.050;2024-03-25T08:36:25;97298.72;;;5.26;81.00
79671;BME280;69137;50.878;8.050;2024-03-25T08:38:50;97300.31;;;5.60;81.60
79671;BME280;69137;50.878;8.050;2024-03-25T08:41:16;97293.63;;;5.73;79.63
79671;BME280;69137;50.878;8.050;2024-03-25T08:43:41;97299.25;;;5.98;81.22
79671;BME280;69137;50.878;8.050;2024-03-25T08:46:09;97295.84;;;6.23;79.73
79671;BME280;69137;50.878;8.050;2024-03-25T08:48:40;97302.19;;;6.44;75.44
79671;BME280;69137;50.878;8.050;2024-03-25T08:51:06;97298.59;;;6.28;75.23
79671;BME280;69137;50.878;8.050;2024-03-25T08:53:32;97304.81;;;6.29;73.89
79671;BME280;69137;50.878;8.050;2024-03-25T08:55:58;97295.84;;;6.23;74.23
79671;BME280;69137;50.878;8.050;2024-03-25T08:58:23;97301.19;;;6.03;72.05
79671;BME280;69137;50.878;8.050;2024-03-25T09:00:49;97291.91;;;5.94;71.39
79671;BME280;69137;50.878;8.050;2024-03-25T09:03:14;97296.28;;;6.00;71.90
79671;BME280;69137;50.878;8.050;2024-03-25T09:05:39;97289.72;;;6.59;72.52
79671;BME280;69137;50.878;8.050;2024-03-25T09:08:08;97291.94;;;6.67;70.69
79671;BME280;69137;50.878;8.050;2024-03-25T09:10:36;97297.88;;;6.64;73.30
79671;BME280;69137;50.878;8.050;2024-03-25T09:13:20;97296.31;;;6.78;69.20
79671;BME280;69137;50.878;8.050;2024-03-25T09:15:45;97295.72;;;6.61;68.91
79671;BME280;69137;50.878;8.050;2024-03-25T09:18:11;97291.59;;;6.53;70.41
79671;BME280;69137;50.878;8.050;2024-03-25T09:20:36;97291.56;;;6.43;68.64
79671;BME280;69137;50.878;8.050;2024-03-25T09:23:01;97294.53;;;6.31;69.85
79671;BME280;69137;50.878;8.050;2024-03-25T09:25:27;97291.56;;;6.38;69.62
79671;BME280;69137;50.878;8.050;2024-03-25T09:27:52;97290.50;;;6.39;69.27
79671;BME280;69137;50.878;8.050;2024-03-25T09:30:18;97295.94;;;6.44;70.78
79671;BME280;69137;50.878;8.050;2024-03-25T09:32:46;97298.38;;;6.45;68.02
79671;BME280;69137;50.878;8.050;2024-03-25T09:35:12;97301.09;;;6.45;69.37
79671;BME280;69137;50.878;8.050;2024-03-25T09:37:38;97300.03;;;6.51;68.25
79671;BME280;69137;50.878;8.050;2024-03-25T09:40:06;97296.69;;;6.29;67.45
79671;BME280;69137;50.878;8.050;2024-03-25T09:42:47;97298.59;;;6.28;68.51
79671;BME280;69137;50.878;8.050;2024-03-25T09:45:16;97295.38;;;6.37;70.40
79671;BME280;69137;50.878;8.050;2024-03-25T09:47:51;97291.28;;;6.34;70.63
79671;BME280;69137;50.878;8.050;2024-03-25T09:50:17;97302.47;;;6.53;67.54
79671;BME280;69137;50.878;8.050;2024-03-25T09:52:49;97297.81;;;6.33;68.87
79671;BME280;69137;50.878;8.050;2024-03-25T09:55:15;97306.50;;;6.45;68.59
79671;BME280;69137;50.878;8.050;2024-03-25T09:57:42;97302.19;;;6.44;69.36
79671;BME280;69137;50.878;8.050;2024-03-25T10:00:08;97303.22;;;6.33;66.99
79671;BME280;69137;50.878;8.050;2024-03-25T10:02:38;97295.03;;;6.23;67.75
79671;BME280;69137;50.878;8.050;2024-03-25T10:05:04;97294.81;;;6.34;67.10
79671;BME280;69137;50.878;8.050;2024-03-25T10:07:30;97291.34;;;6.49;67.29
79671;BME280;69137;50.878;8.050;2024-03-25T10:09:56;97286.50;;;6.62;67.09
79671;BME280;69137;50.878;8.050;2024-03-25T10:12:21;97289.75;;;6.74;67.11
79671;BME280;69137;50.878;8.050;2024-03-25T10:14:46;97281.59;;;6.59;67.38
79671;BME280;69137;50.878;8.050;2024-03-25T10:17:13;97287.88;;;6.90;65.78
79671;BME280;69137;50.878;8.050;2024-03-25T10:19:38;97288.47;;;7.17;67.64
79671;BME280;69137;50.878;8.050;2024-03-25T10:22:07;97280.59;;;7.21;64.54
79671;BME280;69137;50.878;8.050;2024-03-25T10:24:43;97280.06;;;7.04;63.75
79671;BME280;69137;50.878;8.050;2024-03-25T10:27:22;97271.91;;;7.29;62.52
79671;BME280;69137;50.878;8.050;2024-03-25T10:29:51;97263.78;;;7.29;60.84
79671;BME280;69137;50.878;8.050;2024-03-25T10:32:17;97265.94;;;7.37;65.46
79671;BME280;69137;50.878;8.050;2024-03-25T10:34:42;97259.16;;;7.14;63.59
79671;BME280;69137;50.878;8.050;2024-03-25T10:37:09;97258.88;;;7.11;63.10
79671;BME280;69137;50.878;8.050;2024-03-25T10:39:39;97259.16;;;7.09;62.30
79671;BME280;69137;50.878;8.050;2024-03-25T10:42:05;97260.75;;;7.00;63.56
79671;BME280;69137;50.878;8.050;2024-03-25T10:44:30;97254.78;;;7.23;62.80
79671;BME280;69137;50.878;8.050;2024-03-25T10:47:01;97260.22;;;7.18;64.45
79671;BME280;69137;50.878;8.050;2024-03-25T10:49:49;97253.16;;;7.28;64.24
79671;BME280;69137;50.878;8.050;2024-03-25T10:52:16;97257.78;;;7.48;61.45
79671;BME280;69137;50.878;8.050;2024-03-25T10:54:43;97249.28;;;7.80;61.51
79671;BME280;69137;50.878;8.050;2024-03-25T10:57:09;97248.38;;;8.15;61.58
79671;BME280;69137;50.878;8.050;2024-03-25T10:59:35;97248.03;;;8.27;56.30
79671;BME280;69137;50.878;8.050;2024-03-25T11:02:04;97242.66;;;8.12;59.90
79671;BME280;69137;50.878;8.050;2024-03-25T11:04:31;97235.34;;;8.07;59.54
79671;BME280;69137;50.878;8.050;2024-03-25T11:07:09;97239.09;;;8.16;58.34
79671;BME280;69137;50.878;8.050;2024-03-25T11:09:35;97239.09;;;8.16;58.58
79671;BME280;69137;50.878;8.050;2024-03-25T11:12:01;97233.69;;;8.06;59.68
79671;BME280;69137;50.878;8.050;2024-03-25T11:14:27;97233.19;;;7.94;58.49
79671;BME280;69137;50.878;8.050;2024-03-25T11:16:53;97229.75;;;7.52;57.57
79671;BME280;69137;50.878;8.050;2024-03-25T11:19:19;97226.50;;;7.60;57.11
79671;BME280;69137;50.878;8.050;2024-03-25T11:21:46;97230.59;;;7.53;60.18
79671;BME280;69137;50.878;8.050;2024-03-25T11:24:11;97222.13;;;7.70;57.65
79671;BME280;69137;50.878;8.050;2024-03-25T11:26:43;97221.00;;;7.81;57.00
79671;BME280;69137;50.878;8.050;2024-03-25T11:29:08;97222.38;;;7.78;57.77
79671;BME280;69137;50.878;8.050;2024-03-25T11:31:34;97219.41;;;7.70;55.67
79671;BME280;69137;50.878;8.050;2024-03-25T11:34:05;97210.22;;;7.55;55.72
79671;BME280;69137;50.878;8.050;2024-03-25T11:36:33;97206.66;;;7.55;57.81
79671;BME280;69137;50.878;8.050;2024-03-25T11:39:05;97203.59;;;7.87;61.51
79671;BME280;69137;50.878;8.050;2024-03-25T11:41:35;97198.63;;;8.04;59.67
79671;BME280;69137;50.878;8.050;2024-03-25T11:44:04;97196.78;;;7.84;57.35
79671;BME280;69137;50.878;8.050;2024-03-25T11:46:30;97194.81;;;8.00;55.42
79671;BME280;69137;50.878;8.050;2024-03-25T11:48:55;97190.84;;;8.37;57.45
79671;BME280;69137;50.878;8.050;2024-03-25T11:51:21;97179.22;;;8.21;56.30
79671;BME280;69137;50.878;8.050;2024-03-25T11:53:46;97170.25;;;8.21;55.02
79671;BME280;69137;50.878;8.050;2024-03-25T11:56:12;97165.84;;;8.25;52.92
79671;BME280;69137;50.878;8.050;2024-03-25T11:58:38;97169.72;;;8.19;57.27
79671;BME280;69137;50.878;8.050;2024-03-25T12:01:04;97164.91;;;8.55;56.32
79671;BME280;69137;50.878;8.050;2024-03-25T12:03:30;97157.75;;;8.99;54.72
79671;BME280;69137;50.878;8.050;2024-03-25T12:05:55;97163.59;;;8.82;53.91
79671;BME280;69137;50.878;8.050;2024-03-25T12:08:21;97154.69;;;8.71;53.03
79671;BME280;69137;50.878;8.050;2024-03-25T12:10:51;97153.25;;;8.44;52.69
79671;BME280;69137;50.878;8.050;2024-03-25T12:13:36;97144.31;;;8.34;53.68
79671;BME280;69137;50.878;8.050;2024-03-25T12:16:06;97130.22;;;8.26;59.52
79671;BME280;69137;50.878;8.050;2024-03-25T12:18:33;97124.69;;;8.42;57.83
79671;BME280;69137;50.878;8.050;2024-03-25T12:20:58;97127.69;;;8.80;59.11
79671;BME280;69137;50.878;8.050;2024-03-25T12:23:29;97121.78;;;9.02;54.33
79671;BME280;69137;50.878;8.050;2024-03-25T12:25:54;97115.13;;;8.84;52.68
79671;BME280;69137;50.878;8.050;2024-03-25T12:28:19;97111.50;;;8.93;52.85
79671;BME280;69137;50.878;8.050;2024-03-25T12:30:52;97111.09;;;9.05;58.94
79671;BME280;69137;50.878;8.050;2024-03-25T12:33:17;97102.72;;;9.26;52.82
79671;BME280;69137;50.878;8.050;2024-03-25T12:35:47;97104.31;;;9.56;54.17
79671;BME280;69137;50.878;8.050;2024-03-25T12:38:41;97097.06;;;9.70;50.51
79671;BME280;69137;50.878;8.050;2024-03-25T12:41:11;97098.03;;;9.79;49.73
79671;BME280;69137;50.878;8.050;2024-03-25T12:43:42;97089.56;;;9.81;46.36
79671;BME280;69137;50.878;8.050;2024-03-25T12:46:08;97079.84;;;9.70;47.04
79671;BME280;69137;50.878;8.050;2024-03-25T12:48:35;97086.03;;;9.56;48.58
79671;BME280;69137;50.878;8.050;2024-03-25T12:51:00;97079.00;;;9.93;49.37
79671;BME280;69137;50.878;8.050;2024-03-25T12:53:26;97070.88;;;9.88;44.87
79671;BME280;69137;50.878;8.050;2024-03-25T12:55:52;97066.53;;;9.44;46.31
79671;BME280;69137;50.878;8.050;2024-03-25T12:58:17;97067.41;;;9.15;47.79
79671;BME280;69137;50.878;8.050;2024-03-25T13:00:42;97064.34;;;9.22;48.75
79671;BME280;69137;50.878;8.050;2024-03-25T13:03:08;97057.13;;;9.07;48.23